Haines, Illinois
Current Conditions -  °F | °C
As of 4:15 PM on Saturday 20 Dec 2014 (Local Time) from KSLO Reporting Station
Overcast Overcast  
Wind Chill: 40°   Ceiling: 2900
Heat Index: 40°   Visibility: 10mi
Dew Point: 29°   Wind: 3mph
Humidity: 64%   Direction: 150°SSE
Pressure: 30.26"   Gusts: NA
Location:  38.5187°N, 88.8115°W
Report Text: KSLO 202215Z AUTO 15003KT 10SM OVC029 05/M02 A3026 RMK AO2 T00461016
Loading
Personal Weather Stations






























Interactive Weather Map New forecast layout! Learn more

10-Day Weather Forecast

Advertisements
Track Severe Weather on mobile